createdAt,value
2019-05-07T00:00:15.976Z,6.40
2019-05-07T00:02:42.830Z,6.37
2019-05-07T00:05:09.136Z,6.16
2019-05-07T00:07:35.174Z,6.01
2019-05-07T00:10:03.339Z,6.06
2019-05-07T00:12:29.371Z,6.04
2019-05-07T00:15:00.892Z,6.21
2019-05-07T00:17:23.236Z,6.02
2019-05-07T00:19:49.256Z,5.92
2019-05-07T00:22:15.270Z,5.99
2019-05-07T00:24:42.582Z,6.05
2019-05-07T00:27:08.895Z,6.05
2019-05-07T00:29:34.902Z,6.12
2019-05-07T00:32:02.939Z,6.01
2019-05-07T00:34:32.794Z,5.93
2019-05-07T00:37:02.164Z,5.90
2019-05-07T00:39:32.958Z,5.85
2019-05-07T00:42:02.926Z,5.94
2019-05-07T00:44:29.049Z,6.08
2019-05-07T00:46:55.138Z,5.90
2019-05-07T00:49:22.753Z,5.95
2019-05-07T00:51:48.728Z,6.04
2019-05-07T00:54:14.715Z,5.82
2019-05-07T00:56:42.894Z,5.84
2019-05-07T00:59:08.862Z,5.83
2019-05-07T01:01:35.467Z,5.92
2019-05-07T01:04:02.664Z,5.70
2019-05-07T01:06:28.844Z,5.67
2019-05-07T01:08:54.956Z,5.82
2019-05-07T01:11:22.663Z,5.79
2019-05-07T01:13:48.848Z,5.71
2019-05-07T01:16:14.844Z,5.77
2019-05-07T01:18:42.079Z,5.59
2019-05-07T01:21:08.479Z,5.54
2019-05-07T01:23:34.516Z,5.45
2019-05-07T01:26:00.479Z,5.34
2019-05-07T01:28:26.490Z,5.53
2019-05-07T01:30:52.924Z,5.43
2019-05-07T01:33:23.747Z,5.39
2019-05-07T01:35:57.200Z,5.35
2019-05-07T01:38:23.195Z,5.37
2019-05-07T01:40:49.172Z,5.34
2019-05-07T01:43:15.193Z,5.23
2019-05-07T01:45:49.222Z,5.11
2019-05-07T01:48:12.811Z,5.19
2019-05-07T01:50:38.794Z,5.08
2019-05-07T01:53:04.788Z,5.04
2019-05-07T01:55:31.901Z,5.09
2019-05-07T01:57:57.996Z,5.09
2019-05-07T02:00:24.032Z,5.23
2019-05-07T02:02:54.878Z,5.03
2019-05-07T02:05:25.587Z,4.98
2019-05-07T02:07:53.527Z,5.04
2019-05-07T02:10:23.923Z,4.88
2019-05-07T02:12:50.019Z,4.94
2019-05-07T02:15:16.025Z,4.88
2019-05-07T02:17:43.004Z,4.92
2019-05-07T02:20:09.564Z,4.94
2019-05-07T02:22:35.620Z,5.06
2019-05-07T02:25:03.373Z,4.95
2019-05-07T02:27:29.573Z,4.84
2019-05-07T02:29:55.553Z,4.92
2019-05-07T02:32:24.051Z,4.89
2019-05-07T02:34:49.708Z,4.95
2019-05-07T02:37:17.635Z,4.89
2019-05-07T02:39:48.060Z,4.80
2019-05-07T02:42:14.046Z,4.93
2019-05-07T02:44:58.378Z,4.84
2019-05-07T02:47:24.976Z,4.82
2019-05-07T02:49:53.590Z,4.76
2019-05-07T02:52:24.891Z,4.77
2019-05-07T02:54:55.576Z,4.76
2019-05-07T02:57:24.005Z,4.88
2019-05-07T02:59:50.165Z,4.79
2019-05-07T03:02:16.488Z,4.82
2019-05-07T03:04:43.518Z,4.77
2019-05-07T03:07:12.933Z,4.81
2019-05-07T03:09:37.943Z,5.01
2019-05-07T03:12:04.249Z,4.89
2019-05-07T03:14:32.389Z,4.86
2019-05-07T03:16:58.411Z,4.86
2019-05-07T03:19:24.752Z,4.72
2019-05-07T03:21:53.812Z,4.73
2019-05-07T03:24:37.080Z,4.68
2019-05-07T03:27:03.604Z,4.73
2019-05-07T03:29:33.009Z,4.62
2019-05-07T03:32:16.273Z,4.75
2019-05-07T03:34:47.468Z,4.71
2019-05-07T03:37:15.451Z,4.61
2019-05-07T03:39:43.341Z,4.63
2019-05-07T03:42:09.344Z,4.68
2019-05-07T03:44:39.978Z,4.63
2019-05-07T03:47:14.725Z,5.10
2019-05-07T03:49:42.998Z,4.92
2019-05-07T03:52:08.661Z,4.92
2019-05-07T03:54:34.698Z,4.94
2019-05-07T03:57:10.346Z,4.89
2019-05-07T03:59:30.005Z,4.89
2019-05-07T04:01:55.993Z,4.93
2019-05-07T04:04:23.006Z,4.93
2019-05-07T04:06:49.226Z,4.79
2019-05-07T04:09:15.447Z,4.74
2019-05-07T04:11:43.341Z,4.76
2019-05-07T04:14:09.370Z,4.76
2019-05-07T04:16:35.847Z,4.86
2019-05-07T04:19:03.913Z,4.68
2019-05-07T04:21:29.896Z,4.67
2019-05-07T04:24:13.938Z,4.75
2019-05-07T04:26:44.618Z,4.84
2019-05-07T04:29:22.882Z,4.78
2019-05-07T04:31:47.557Z,4.75
2019-05-07T04:34:15.599Z,4.75
2019-05-07T04:36:43.950Z,4.74
2019-05-07T04:39:12.961Z,4.80
2019-05-07T04:41:38.053Z,4.74
2019-05-07T04:44:04.066Z,4.71
2019-05-07T04:46:33.049Z,4.78
2019-05-07T04:48:58.244Z,4.84
2019-05-07T04:51:26.230Z,4.95
2019-05-07T04:53:54.167Z,5.00
2019-05-07T04:56:23.566Z,5.19
2019-05-07T04:58:48.369Z,5.23
2019-05-07T05:01:16.374Z,5.31
2019-05-07T05:03:43.678Z,5.59
2019-05-07T05:06:09.971Z,5.59
2019-05-07T05:08:36.313Z,5.63
2019-05-07T05:11:03.451Z,5.82
2019-05-07T05:13:32.186Z,5.86
2019-05-07T05:15:59.535Z,5.97
2019-05-07T05:18:25.528Z,6.13
2019-05-07T05:20:59.293Z,6.11
2019-05-07T05:23:29.705Z,6.12
2019-05-07T05:25:56.027Z,6.20
2019-05-07T05:28:22.081Z,6.25
2019-05-07T05:30:50.046Z,6.29
2019-05-07T05:33:16.234Z,6.41
2019-05-07T05:35:43.094Z,6.50
2019-05-07T05:38:09.398Z,6.52
2019-05-07T05:40:35.567Z,6.46
2019-05-07T05:43:19.804Z,6.64
2019-05-07T05:45:47.879Z,6.78
2019-05-07T05:48:13.994Z,6.80
2019-05-07T05:50:56.989Z,6.89
2019-05-07T05:53:32.612Z,6.86
2019-05-07T05:56:02.246Z,7.01
2019-05-07T05:58:43.081Z,6.99
2019-05-07T06:01:31.927Z,7.20
2019-05-07T06:04:08.268Z,7.23
2019-05-07T06:06:36.346Z,7.34
2019-05-07T06:09:24.020Z,7.39
2019-05-07T06:12:08.727Z,7.44
2019-05-07T06:14:36.685Z,7.49
2019-05-07T06:17:07.108Z,7.74
2019-05-07T06:19:42.388Z,7.71
2019-05-07T06:22:26.629Z,7.82
2019-05-07T06:24:56.407Z,7.88
2019-05-07T06:27:22.924Z,7.78
2019-05-07T06:29:49.084Z,7.93
2019-05-07T06:32:16.993Z,8.03
2019-05-07T06:34:44.741Z,8.36
2019-05-07T06:37:11.870Z,8.45
2019-05-07T06:39:45.837Z,8.82
2019-05-07T06:42:25.409Z,8.71
2019-05-07T06:44:56.145Z,8.92
2019-05-07T06:47:22.238Z,9.31
2019-05-07T06:49:48.263Z,9.74
2019-05-07T06:52:14.286Z,9.50
2019-05-07T06:54:42.730Z,9.16
2019-05-07T06:57:08.187Z,9.61
2019-05-07T06:59:38.839Z,9.39
2019-05-07T07:02:23.277Z,9.90
2019-05-07T07:04:52.004Z,9.70
2019-05-07T07:07:29.876Z,9.89
2019-05-07T07:09:58.284Z,10.03
2019-05-07T07:12:33.138Z,10.09
2019-05-07T07:14:59.480Z,10.03
2019-05-07T07:17:25.501Z,9.57
2019-05-07T07:19:52.329Z,9.99
2019-05-07T07:22:18.424Z,10.09
2019-05-07T07:24:44.391Z,10.15
2019-05-07T07:27:10.452Z,10.19
2019-05-07T07:29:38.392Z,10.09
2019-05-07T07:32:06.315Z,9.82
2019-05-07T07:34:34.238Z,9.72
2019-05-07T07:37:17.062Z,9.53
2019-05-07T07:39:43.233Z,9.38
2019-05-07T07:42:09.502Z,9.88
2019-05-07T07:44:35.488Z,9.75
2019-05-07T07:47:02.491Z,9.90
2019-05-07T07:49:28.706Z,10.36
2019-05-07T07:51:54.682Z,10.89
2019-05-07T07:54:22.646Z,11.27
2019-05-07T07:56:56.322Z,11.59
2019-05-07T07:59:23.083Z,11.73
2019-05-07T08:01:52.416Z,11.20
2019-05-07T08:04:18.600Z,10.82
2019-05-07T08:06:45.239Z,10.69
2019-05-07T08:09:12.946Z,10.73
2019-05-07T08:11:39.165Z,10.94
2019-05-07T08:14:05.801Z,11.10
2019-05-07T08:16:32.757Z,11.60
2019-05-07T08:18:58.993Z,11.60
2019-05-07T08:21:25.114Z,12.02
2019-05-07T08:23:52.892Z,12.10
2019-05-07T08:26:19.005Z,12.78
2019-05-07T08:28:45.035Z,12.03
2019-05-07T08:31:13.205Z,12.07
2019-05-07T08:33:46.983Z,12.20
2019-05-07T08:36:15.061Z,12.80
2019-05-07T08:38:52.700Z,13.17
2019-05-07T08:41:22.333Z,13.36
2019-05-07T08:43:51.329Z,13.58
2019-05-07T08:46:32.771Z,12.43
2019-05-07T08:48:58.885Z,12.25
2019-05-07T08:51:24.909Z,12.37
2019-05-07T08:53:52.891Z,12.73
2019-05-07T08:56:18.949Z,12.90
2019-05-07T08:58:45.040Z,11.86
2019-05-07T09:01:11.855Z,11.58
2019-05-07T09:03:43.833Z,11.81
2019-05-07T09:06:11.677Z,12.85
2019-05-07T09:08:37.948Z,12.82
2019-05-07T09:11:03.957Z,13.03
2019-05-07T09:13:29.943Z,13.21
2019-05-07T09:15:56.087Z,13.69
2019-05-07T09:18:22.952Z,14.07
2019-05-07T09:20:49.057Z,13.77
2019-05-07T09:23:15.097Z,13.59
2019-05-07T09:25:46.016Z,13.79
2019-05-07T09:28:12.010Z,14.38
2019-05-07T09:30:48.632Z,14.14
2019-05-07T09:33:16.526Z,12.65
2019-05-07T09:35:44.439Z,12.32
2019-05-07T09:38:12.199Z,12.77
2019-05-07T09:40:38.303Z,12.69
2019-05-07T09:43:04.357Z,12.71
2019-05-07T09:45:32.639Z,13.19
2019-05-07T09:47:58.226Z,14.09
2019-05-07T09:50:24.342Z,14.62
2019-05-07T09:52:51.818Z,13.85
2019-05-07T09:55:18.071Z,13.22
2019-05-07T09:57:44.058Z,13.66
2019-05-07T10:00:12.312Z,14.09
2019-05-07T10:02:38.565Z,14.25
2019-05-07T10:05:04.884Z,14.65
2019-05-07T10:07:32.445Z,14.28
2019-05-07T10:09:58.652Z,13.30
2019-05-07T10:12:33.055Z,13.88
2019-05-07T10:14:59.201Z,14.44
2019-05-07T10:17:32.825Z,14.64
2019-05-07T10:19:59.566Z,15.67
2019-05-07T10:22:25.572Z,15.38
2019-05-07T10:24:52.211Z,15.73
2019-05-07T10:27:18.400Z,15.41
2019-05-07T10:29:44.375Z,15.70
2019-05-07T10:32:12.604Z,14.19
2019-05-07T10:34:38.469Z,14.09
2019-05-07T10:37:04.491Z,13.97
2019-05-07T10:39:32.422Z,13.59
2019-05-07T10:41:58.484Z,13.46
2019-05-07T10:44:26.451Z,13.26
2019-05-07T10:46:54.372Z,14.33
2019-05-07T10:49:22.648Z,14.48
2019-05-07T10:51:48.766Z,14.14
2019-05-07T10:54:15.085Z,14.67
2019-05-07T10:56:41.895Z,15.27
2019-05-07T10:59:08.037Z,14.36
2019-05-07T11:01:42.557Z,15.04
2019-05-07T11:04:08.648Z,14.96
2019-05-07T11:06:34.660Z,14.09
2019-05-07T11:09:00.686Z,14.68
2019-05-07T11:11:26.677Z,15.32
2019-05-07T11:13:55.863Z,15.17
2019-05-07T11:16:22.466Z,14.53
2019-05-07T11:18:51.802Z,14.38
2019-05-07T11:21:19.826Z,14.86
2019-05-07T11:23:45.834Z,15.14
2019-05-07T11:26:12.072Z,15.08
2019-05-07T11:28:38.071Z,14.87
2019-05-07T11:31:04.070Z,15.49
2019-05-07T11:33:32.326Z,15.19
2019-05-07T11:35:57.987Z,14.60
2019-05-07T11:38:24.936Z,14.97
2019-05-07T11:40:51.788Z,13.91
2019-05-07T11:43:22.100Z,13.43
2019-05-07T11:45:54.328Z,13.30
2019-05-07T11:48:22.198Z,13.19
2019-05-07T11:51:01.377Z,13.39
2019-05-07T11:53:22.510Z,13.56
2019-05-07T11:55:48.491Z,13.70
2019-05-07T11:58:14.484Z,13.86
2019-05-07T12:00:43.314Z,13.51
2019-05-07T12:03:09.388Z,13.26
2019-05-07T12:05:35.721Z,13.16
2019-05-07T12:08:02.403Z,13.18
2019-05-07T12:10:28.572Z,12.91
2019-05-07T12:12:54.713Z,12.94
2019-05-07T12:15:21.732Z,12.75
2019-05-07T12:17:48.261Z,12.93
2019-05-07T12:20:14.862Z,12.78
2019-05-07T12:22:51.990Z,12.81
2019-05-07T12:25:19.593Z,13.06
2019-05-07T12:27:46.988Z,13.23
2019-05-07T12:30:32.631Z,13.47
2019-05-07T12:33:06.588Z,14.00
2019-05-07T12:35:33.162Z,14.40
2019-05-07T12:37:59.171Z,14.97
2019-05-07T12:40:25.375Z,15.23
2019-05-07T12:42:52.421Z,15.40
2019-05-07T12:45:18.584Z,15.89
2019-05-07T12:47:44.588Z,15.85
2019-05-07T12:50:10.956Z,15.98
2019-05-07T12:52:39.104Z,15.80
2019-05-07T12:55:11.840Z,15.68
2019-05-07T12:57:37.864Z,15.86
2019-05-07T13:00:25.082Z,15.55
2019-05-07T13:02:52.957Z,15.71
2019-05-07T13:05:18.976Z,15.86
2019-05-07T13:07:46.864Z,15.36
2019-05-07T13:10:12.934Z,14.69
2019-05-07T13:12:38.983Z,14.29
2019-05-07T13:15:05.367Z,14.27
2019-05-07T13:17:33.582Z,13.61
2019-05-07T13:20:01.585Z,13.20
2019-05-07T13:22:27.239Z,12.89
2019-05-07T13:24:53.256Z,12.67
2019-05-07T13:27:19.242Z,12.74
2019-05-07T13:29:45.337Z,12.64
2019-05-07T13:32:12.929Z,12.29
2019-05-07T13:34:39.807Z,12.42
2019-05-07T13:37:13.665Z,12.38
2019-05-07T13:39:42.942Z,12.03
2019-05-07T13:42:12.697Z,11.82
2019-05-07T13:44:43.628Z,11.64
2019-05-07T13:47:23.413Z,11.56
2019-05-07T13:49:53.551Z,11.59
2019-05-07T13:52:17.724Z,11.53
2019-05-07T13:54:43.929Z,11.41
2019-05-07T13:57:12.045Z,11.58
2019-05-07T13:59:38.195Z,11.73
2019-05-07T14:02:06.494Z,11.79
2019-05-07T14:04:32.683Z,11.99
2019-05-07T14:07:01.812Z,11.88
2019-05-07T14:09:27.913Z,11.93
2019-05-07T14:11:53.945Z,11.97
2019-05-07T14:14:22.188Z,11.92
2019-05-07T14:16:48.316Z,11.82
2019-05-07T14:19:14.321Z,12.00
2019-05-07T14:21:42.179Z,11.93
2019-05-07T14:24:08.386Z,12.20
2019-05-07T14:26:34.377Z,12.43
2019-05-07T14:29:01.908Z,12.90
2019-05-07T14:31:28.322Z,13.50
2019-05-07T14:33:58.920Z,13.82
2019-05-07T14:36:31.835Z,13.78
2019-05-07T14:38:57.760Z,13.65
2019-05-07T14:41:25.706Z,13.85
2019-05-07T14:44:02.517Z,14.01
2019-05-07T14:46:43.515Z,13.68
2019-05-07T14:48:56.676Z,13.85
2019-05-07T14:51:22.788Z,14.07
2019-05-07T14:53:48.905Z,13.60
2019-05-07T14:56:15.208Z,13.38
2019-05-07T14:58:42.320Z,13.35
2019-05-07T15:01:08.761Z,13.46
2019-05-07T15:03:34.992Z,13.64
2019-05-07T15:06:02.038Z,13.63
2019-05-07T15:08:28.184Z,13.81
2019-05-07T15:10:54.160Z,14.18
2019-05-07T15:13:21.770Z,14.12
2019-05-07T15:15:48.471Z,14.11
2019-05-07T15:18:25.633Z,13.79
2019-05-07T15:20:52.486Z,14.07
2019-05-07T15:23:26.697Z,13.91
2019-05-07T15:25:53.185Z,13.86
2019-05-07T15:28:19.178Z,14.08
2019-05-07T15:30:52.875Z,13.97
2019-05-07T15:33:19.001Z,14.08
2019-05-07T15:35:45.036Z,13.78
2019-05-07T15:38:11.639Z,13.75
2019-05-07T15:40:37.836Z,13.45
2019-05-07T15:43:04.109Z,13.36
2019-05-07T15:45:30.201Z,13.64
2019-05-07T15:47:57.526Z,13.64
2019-05-07T15:50:25.405Z,13.58
2019-05-07T15:52:58.379Z,13.62
2019-05-07T15:55:24.577Z,13.91
2019-05-07T15:57:52.156Z,14.14
2019-05-07T16:00:23.425Z,14.21
2019-05-07T16:03:09.029Z,14.25
2019-05-07T16:05:35.033Z,13.58
2019-05-07T16:08:01.761Z,13.69
2019-05-07T16:10:29.132Z,13.73
2019-05-07T16:12:55.196Z,13.71
2019-05-07T16:15:22.502Z,13.38
2019-05-07T16:17:52.205Z,13.41
2019-05-07T16:20:18.365Z,13.37
2019-05-07T16:22:49.059Z,13.47
2019-05-07T16:25:15.051Z,13.37
2019-05-07T16:27:42.187Z,13.09
2019-05-07T16:30:13.819Z,12.89
2019-05-07T16:32:38.374Z,13.01
2019-05-07T16:35:05.666Z,12.82
2019-05-07T16:37:32.644Z,12.67
2019-05-07T16:39:58.624Z,12.62
2019-05-07T16:42:24.655Z,12.55
2019-05-07T16:44:52.307Z,12.47
2019-05-07T16:47:18.556Z,12.23
2019-05-07T16:49:44.654Z,12.01
2019-05-07T16:52:12.000Z,12.26
2019-05-07T16:54:38.144Z,12.11
2019-05-07T16:57:15.199Z,12.12
2019-05-07T16:59:42.697Z,12.26
2019-05-07T17:02:13.325Z,12.38
2019-05-07T17:04:42.518Z,12.49
2019-05-07T17:07:10.540Z,12.37
2019-05-07T17:09:36.594Z,12.41
2019-05-07T17:12:04.537Z,12.51
2019-05-07T17:14:30.527Z,12.41
2019-05-07T17:16:56.603Z,12.51
2019-05-07T17:19:22.582Z,12.49
2019-05-07T17:21:48.815Z,12.52
2019-05-07T17:24:14.907Z,12.47
2019-05-07T17:26:42.376Z,12.44
2019-05-07T17:29:09.644Z,12.30
2019-05-07T17:31:35.700Z,12.30
2019-05-07T17:34:03.173Z,12.13
2019-05-07T17:36:29.265Z,11.96
2019-05-07T17:38:55.422Z,11.86
2019-05-07T17:41:26.539Z,11.74
2019-05-07T17:43:49.339Z,11.85
2019-05-07T17:46:15.508Z,12.01
2019-05-07T17:48:42.940Z,12.13
2019-05-07T17:51:12.441Z,12.12
2019-05-07T17:53:38.776Z,12.08
2019-05-07T17:56:04.918Z,11.77
2019-05-07T17:58:32.528Z,11.88
2019-05-07T18:01:01.795Z,11.90
2019-05-07T18:03:32.028Z,12.02
2019-05-07T18:05:57.935Z,11.83
2019-05-07T18:08:23.929Z,11.66
2019-05-07T18:10:49.937Z,11.96
2019-05-07T18:13:15.991Z,11.82
2019-05-07T18:15:42.796Z,11.73
2019-05-07T18:18:12.851Z,11.77
2019-05-07T18:20:38.792Z,11.87
2019-05-07T18:23:07.210Z,11.78
2019-05-07T18:25:32.865Z,11.63
2019-05-07T18:27:59.095Z,11.58
2019-05-07T18:30:25.767Z,11.70
2019-05-07T18:32:56.607Z,11.78
2019-05-07T18:35:23.286Z,11.69
2019-05-07T18:37:52.676Z,11.73
2019-05-07T18:40:20.200Z,11.61
2019-05-07T18:42:46.443Z,11.66
2019-05-07T18:45:12.715Z,11.63
2019-05-07T18:47:38.765Z,11.58
2019-05-07T18:50:05.336Z,11.55
2019-05-07T18:52:31.960Z,11.51
2019-05-07T18:54:58.175Z,11.45
2019-05-07T18:57:24.324Z,11.41
2019-05-07T18:59:50.362Z,11.47
2019-05-07T19:02:16.354Z,11.42
2019-05-07T19:04:42.784Z,11.38
2019-05-07T19:07:09.024Z,11.34
2019-05-07T19:09:35.279Z,11.36
2019-05-07T19:12:01.659Z,11.28
2019-05-07T19:14:27.945Z,10.87
2019-05-07T19:16:53.936Z,10.80
2019-05-07T19:19:22.046Z,10.74
2019-05-07T19:21:47.922Z,10.72
2019-05-07T19:24:14.073Z,10.79
2019-05-07T19:26:41.945Z,10.97
2019-05-07T19:29:08.118Z,11.07
2019-05-07T19:31:34.358Z,10.96
2019-05-07T19:34:00.406Z,10.88
2019-05-07T19:36:26.407Z,10.80
2019-05-07T19:38:52.714Z,10.66
2019-05-07T19:41:18.831Z,10.74
2019-05-07T19:43:44.950Z,10.60
2019-05-07T19:46:12.375Z,10.64
2019-05-07T19:48:38.600Z,10.54
2019-05-07T19:51:04.628Z,10.43
2019-05-07T19:53:32.616Z,10.19
2019-05-07T19:56:03.533Z,9.74
2019-05-07T19:58:29.822Z,9.68
2019-05-07T20:00:57.213Z,9.62
2019-05-07T20:03:23.648Z,9.47
2019-05-07T20:05:52.386Z,9.29
2019-05-07T20:08:18.129Z,9.21
2019-05-07T20:10:46.048Z,9.29
2019-05-07T20:13:12.623Z,9.39
2019-05-07T20:15:42.594Z,9.44
2019-05-07T20:18:08.943Z,9.35
2019-05-07T20:20:35.009Z,9.34
2019-05-07T20:23:02.569Z,9.19
2019-05-07T20:25:28.911Z,9.14
2019-05-07T20:27:55.132Z,9.14
2019-05-07T20:30:22.895Z,9.15
2019-05-07T20:32:49.638Z,9.02
2019-05-07T20:35:15.915Z,8.90
2019-05-07T20:37:42.095Z,8.68
2019-05-07T20:40:08.304Z,8.73
2019-05-07T20:42:34.524Z,8.78
2019-05-07T20:45:02.850Z,8.62
2019-05-07T20:47:28.786Z,8.61
2019-05-07T20:49:54.785Z,8.57
2019-05-07T20:52:22.779Z,8.46
2019-05-07T20:55:02.296Z,8.52
2019-05-07T20:57:31.989Z,8.52
2019-05-07T20:59:58.063Z,8.49
2019-05-07T21:02:24.077Z,8.47
2019-05-07T21:04:51.878Z,8.55
2019-05-07T21:07:18.057Z,8.43
2019-05-07T21:09:44.159Z,8.28
2019-05-07T21:12:10.156Z,8.01
2019-05-07T21:14:36.506Z,7.99
2019-05-07T21:17:02.721Z,7.87
2019-05-07T21:19:28.744Z,7.73
2019-05-07T21:21:54.780Z,7.63
2019-05-07T21:24:22.585Z,7.54
2019-05-07T21:26:48.630Z,7.37
2019-05-07T21:29:14.664Z,7.38
2019-05-07T21:31:42.814Z,7.44
2019-05-07T21:34:08.586Z,7.28
2019-05-07T21:36:34.560Z,7.16
2019-05-07T21:39:02.299Z,7.07
2019-05-07T21:41:28.542Z,7.05
2019-05-07T21:43:54.540Z,7.05
2019-05-07T21:46:22.270Z,6.93
2019-05-07T21:48:48.509Z,6.88
2019-05-07T21:51:14.513Z,6.97
2019-05-07T21:53:43.042Z,6.82
2019-05-07T21:56:23.193Z,6.82
2019-05-07T21:58:53.861Z,6.73
2019-05-07T22:01:21.922Z,6.76
2019-05-07T22:03:49.665Z,6.70
2019-05-07T22:06:15.682Z,6.76
2019-05-07T22:08:41.686Z,6.81
2019-05-07T22:11:09.503Z,6.73
2019-05-07T22:13:35.529Z,6.65
2019-05-07T22:16:02.583Z,6.58
2019-05-07T22:18:28.866Z,6.45
2019-05-07T22:20:54.845Z,6.34
2019-05-07T22:23:24.489Z,6.29
2019-05-07T22:25:51.959Z,6.25
2019-05-07T22:28:17.984Z,6.17
2019-05-07T22:30:52.783Z,6.17
2019-05-07T22:33:37.078Z,6.02
2019-05-07T22:36:03.144Z,5.91
2019-05-07T22:38:29.209Z,5.85
2019-05-07T22:40:55.249Z,6.00
2019-05-07T22:43:22.610Z,5.82
2019-05-07T22:45:48.777Z,5.86
2019-05-07T22:48:14.777Z,5.78
2019-05-07T22:50:42.104Z,5.78
2019-05-07T22:53:08.733Z,5.65
2019-05-07T22:55:34.756Z,5.70
2019-05-07T22:58:05.264Z,5.64
2019-05-07T23:00:33.179Z,5.65
2019-05-07T23:02:59.226Z,5.60
2019-05-07T23:05:25.218Z,5.71
2019-05-07T23:07:52.643Z,5.53
2019-05-07T23:10:18.800Z,5.56
2019-05-07T23:12:44.786Z,5.72
2019-05-07T23:15:11.906Z,5.51
2019-05-07T23:17:38.103Z,5.56
2019-05-07T23:20:04.844Z,5.55
2019-05-07T23:22:32.433Z,5.53
2019-05-07T23:24:59.480Z,5.42
2019-05-07T23:27:25.530Z,5.46
2019-05-07T23:29:52.907Z,5.49
2019-05-07T23:32:19.092Z,5.38
2019-05-07T23:34:45.105Z,5.33
2019-05-07T23:37:11.782Z,5.31
2019-05-07T23:39:45.792Z,5.33
2019-05-07T23:42:19.308Z,5.41
2019-05-07T23:44:45.285Z,5.36
2019-05-07T23:47:12.166Z,5.20
2019-05-07T23:49:38.305Z,5.18
2019-05-07T23:52:04.381Z,5.23
2019-05-07T23:54:31.867Z,5.16
2019-05-07T23:57:05.882Z,5.12
2019-05-07T23:59:26.111Z,5.07
